Time;durP1;ratioP1;P1;durP2;ratioP2;P2;SDS_P1;SDS_P2;PMS_P1;PMS_P2;Temp;Humidity;BMP_temperature;BMP_pressure;BME280_temperature;BME280_humidity;BME280_pressure;Samples;Min_cycle;Max_cycle;Signal;HPM_P1;HPM_P2
2022/04/18 12:22:39;;;;;;;4.23;3.10;;;;;;;;;;4318253;29;20483;-77
2022/04/18 12:25:06;;;;;;;2.60;2.37;;;;;;;;;;4930368;29;20974;-79
2022/04/18 12:27:38;;;;;;;2.97;2.67;;;;;;;;;;4932246;29;20462;-77
2022/04/18 12:30:06;;;;;;;3.57;2.40;;;;;;;;;;4934891;29;20901;-77
2022/04/18 12:32:38;;;;;;;3.17;2.40;;;;;;;;;;4935837;29;20502;-77
2022/04/18 12:35:06;;;;;;;3.27;1.93;;;;;;;;;;4933857;29;20692;-77
2022/04/18 12:37:33;;;;;;;2.50;2.20;;;;;;;;;;4932291;29;20500;-76
2022/04/18 12:40:15;;;;;;;2.43;2.00;;;;;;;;;;4937673;29;20439;-76
2022/04/18 12:42:51;;;;;;;4.47;2.10;;;;;;;;;;4935678;29;20440;-76
2022/04/18 12:45:18;;;;;;;3.53;2.67;;;;;;;;;;4920127;29;20455;-77
2022/04/18 12:47:45;;;;;;;3.17;2.40;;;;;;;;;;4931432;29;20438;-76
2022/04/18 12:50:14;;;;;;;2.10;1.90;;;;;;;;;;4932631;29;20436;-77
2022/04/18 12:52:50;;;;;;;2.27;2.07;;;;;;;;;;4933967;29;20930;-76
2022/04/18 12:55:25;;;;;;;2.13;1.90;;;;;;;;;;4924878;29;20487;-77
2022/04/18 12:57:54;;;;;;;2.70;2.30;;;;;;;;;;4920126;29;20486;-77
2022/04/18 13:00:21;;;;;;;2.57;2.00;;;;;;;;;;4936434;29;20484;-76
2022/04/18 13:03:02;;;;;;;2.47;2.17;;;;;;;;;;4935815;29;20858;-75
2022/04/18 13:05:29;;;;;;;2.50;2.23;;;;;;;;;;4938291;29;20793;-78
2022/04/18 13:07:58;;;;;;;3.13;2.00;;;;;;;;;;4935970;29;20438;-80
2022/04/18 13:10:29;;;;;;;2.03;1.83;;;;;;;;;;4935730;29;20490;-77
2022/04/18 13:13:01;;;;;;;2.90;2.37;;;;;;;;;;4931249;29;20466;-81
2022/04/18 13:15:29;;;;;;;2.17;1.90;;;;;;;;;;4933800;29;20438;-76
2022/04/18 13:17:59;;;;;;;2.33;2.13;;;;;;;;;;4918732;29;20467;-75
2022/04/18 13:20:26;;;;;;;2.37;2.17;;;;;;;;;;4934441;29;20494;-75
2022/04/18 13:22:53;;;;;;;2.90;2.07;;;;;;;;;;4936440;29;20964;-75
2022/04/18 13:25:20;;;;;;;2.23;2.00;;;;;;;;;;4935911;29;20526;-82
2022/04/18 13:27:48;;;;;;;2.20;2.00;;;;;;;;;;4937253;29;20517;-78
2022/04/18 13:30:16;;;;;;;2.80;1.93;;;;;;;;;;4936679;29;20549;-76
2022/04/18 13:32:43;;;;;;;2.10;1.90;;;;;;;;;;4933527;29;20508;-76
2022/04/18 13:35:11;;;;;;;2.10;1.70;;;;;;;;;;4930742;29;20461;-77
2022/04/18 13:37:38;;;;;;;5.20;2.40;;;;;;;;;;4934958;29;20840;-77
2022/04/18 13:40:06;;;;;;;3.47;1.97;;;;;;;;;;4934077;29;20442;-74
2022/04/18 13:42:34;;;;;;;2.70;2.23;;;;;;;;;;4932775;29;20442;-79
2022/04/18 13:45:01;;;;;;;2.30;2.10;;;;;;;;;;4935679;29;20442;-77
2022/04/18 13:47:29;;;;;;;2.63;1.80;;;;;;;;;;4931905;29;21016;-75
2022/04/18 13:49:58;;;;;;;3.03;2.07;;;;;;;;;;4934048;29;20460;-75
2022/04/18 13:52:25;;;;;;;2.77;1.90;;;;;;;;;;4936016;29;20527;-76
2022/04/18 13:54:52;;;;;;;1.83;1.60;;;;;;;;;;4935334;29;20455;-75
2022/04/18 13:57:19;;;;;;;2.17;1.97;;;;;;;;;;4929558;29;20500;-75
2022/04/18 13:59:46;;;;;;;4.47;2.30;;;;;;;;;;4930900;29;20455;-75
2022/04/18 14:02:14;;;;;;;2.10;1.90;;;;;;;;;;4935767;29;20448;-75
2022/04/18 14:04:42;;;;;;;2.10;1.83;;;;;;;;;;4932369;29;20474;-76
2022/04/18 14:07:09;;;;;;;3.50;2.60;;;;;;;;;;4933596;29;20458;-75
2022/04/18 14:09:37;;;;;;;2.73;2.20;;;;;;;;;;4936671;29;20517;-74
2022/04/18 14:12:04;;;;;;;2.63;2.43;;;;;;;;;;4935760;29;20453;-75
2022/04/18 14:22:36;;;;;;;2.53;1.97;;;;;;;;;;4930530;29;20458;-75
2022/04/18 14:25:03;;;;;;;2.13;1.93;;;;;;;;;;4934368;29;20949;-76
2022/04/18 14:27:31;;;;;;;2.00;1.80;;;;;;;;;;4934016;29;20834;-75
2022/04/18 14:29:58;;;;;;;1.87;1.70;;;;;;;;;;4933940;29;20460;-76
2022/04/18 14:32:25;;;;;;;2.37;1.70;;;;;;;;;;4935983;29;20459;-75
2022/04/18 14:34:52;;;;;;;2.07;1.87;;;;;;;;;;4935716;29;20801;-76
2022/04/18 14:37:22;;;;;;;3.50;2.57;;;;;;;;;;4933297;29;20819;-77
2022/04/18 14:39:49;;;;;;;3.53;1.93;;;;;;;;;;4933036;29;20528;-76
2022/04/18 14:42:16;;;;;;;2.20;2.00;;;;;;;;;;4929728;29;20500;-76
2022/04/18 14:44:43;;;;;;;2.70;1.90;;;;;;;;;;4928684;29;20423;-76
2022/04/18 14:47:11;;;;;;;2.77;1.83;;;;;;;;;;4933274;29;20464;-75
2022/04/18 14:49:38;;;;;;;3.47;1.70;;;;;;;;;;4931240;29;20464;-75
2022/04/18 14:52:08;;;;;;;2.73;1.83;;;;;;;;;;4934199;29;20468;-75
2022/04/18 14:54:37;;;;;;;2.63;2.40;;;;;;;;;;4935088;29;20431;-75
2022/04/18 14:57:04;;;;;;;2.23;2.03;;;;;;;;;;4934587;29;20448;-75
2022/04/18 14:59:32;;;;;;;2.00;1.70;;;;;;;;;;4935290;29;20487;-74
2022/04/18 15:01:59;;;;;;;2.50;1.87;;;;;;;;;;4935812;29;20489;-75
2022/04/18 15:04:27;;;;;;;2.60;1.80;;;;;;;;;;4928596;29;20426;-75
2022/04/18 15:06:54;;;;;;;2.10;1.77;;;;;;;;;;4910930;29;20466;-75
2022/04/18 15:09:21;;;;;;;3.60;2.00;;;;;;;;;;4931653;29;20463;-74
2022/04/18 15:11:50;;;;;;;1.83;1.70;;;;;;;;;;4931832;29;20492;-75
2022/04/18 15:14:17;;;;;;;1.90;1.70;;;;;;;;;;4940302;29;20448;-75
2022/04/18 15:16:44;;;;;;;3.80;1.93;;;;;;;;;;4934571;29;20421;-76
2022/04/18 15:19:11;;;;;;;2.90;2.07;;;;;;;;;;4933884;29;20502;-76
2022/04/18 15:21:39;;;;;;;2.97;2.03;;;;;;;;;;4930670;29;20449;-76
2022/04/18 15:24:07;;;;;;;1.83;1.70;;;;;;;;;;4929933;29;20431;-76
2022/04/18 15:26:34;;;;;;;4.37;2.10;;;;;;;;;;4932944;29;20437;-76
2022/04/18 15:29:03;;;;;;;2.27;1.77;;;;;;;;;;4916829;29;20442;-76
2022/04/18 15:34:11;;;;;;;2.00;1.73;;;;;;;;;;4934184;29;20418;-75
2022/04/18 15:36:38;;;;;;;1.60;1.50;;;;;;;;;;4931970;29;20469;-76
2022/04/18 15:39:06;;;;;;;2.07;1.87;;;;;;;;;;4932060;29;20494;-76
2022/04/18 15:41:33;;;;;;;2.57;2.37;;;;;;;;;;4935943;29;20529;-77
2022/04/18 15:44:00;;;;;;;2.97;1.80;;;;;;;;;;4931230;29;20445;-75
2022/04/18 15:46:30;;;;;;;2.43;1.73;;;;;;;;;;4913124;29;20463;-75
2022/04/18 15:48:57;;;;;;;2.73;2.20;;;;;;;;;;4933499;29;20484;-74
2022/04/18 15:51:25;;;;;;;2.23;2.03;;;;;;;;;;4933770;29;20470;-74
2022/04/18 15:53:53;;;;;;;3.30;2.00;;;;;;;;;;4930489;29;20461;-76
2022/04/18 15:56:20;;;;;;;3.07;2.00;;;;;;;;;;4934964;29;20831;-75
2022/04/18 15:58:47;;;;;;;2.23;2.00;;;;;;;;;;4933892;29;20493;-75
2022/04/18 16:01:14;;;;;;;2.13;1.90;;;;;;;;;;4935644;29;20482;-75
2022/04/18 16:03:43;;;;;;;2.43;1.80;;;;;;;;;;4931331;29;20435;-75
2022/04/18 16:06:10;;;;;;;2.10;1.90;;;;;;;;;;4928115;29;20452;-76
2022/04/18 16:08:37;;;;;;;2.77;1.80;;;;;;;;;;4929769;29;21015;-76
2022/04/18 16:11:04;;;;;;;2.37;2.00;;;;;;;;;;4933538;29;20469;-74
2022/04/18 16:13:31;;;;;;;2.07;1.77;;;;;;;;;;4932258;29;20462;-75
2022/04/18 16:15:59;;;;;;;2.37;1.87;;;;;;;;;;4933387;29;20447;-74
2022/04/18 16:18:26;;;;;;;1.83;1.57;;;;;;;;;;4930682;29;20468;-75
2022/04/18 16:20:54;;;;;;;1.97;1.83;;;;;;;;;;4931303;29;20463;-76
2022/04/18 16:23:21;;;;;;;2.90;1.80;;;;;;;;;;4927151;29;20833;-75
2022/04/18 16:25:49;;;;;;;1.90;1.70;;;;;;;;;;4930829;29;20445;-76
2022/04/18 16:28:16;;;;;;;1.90;1.80;;;;;;;;;;4932165;29;20944;-76
2022/04/18 16:33:24;;;;;;;2.40;2.00;;;;;;;;;;4931270;29;20971;-75
2022/04/18 16:35:51;;;;;;;2.83;1.70;;;;;;;;;;4934197;29;20455;-76
2022/04/18 16:38:20;;;;;;;3.60;1.80;;;;;;;;;;4931136;29;20992;-74
2022/04/18 16:46:09;;;;;;;2.70;1.60;;;;;;;;;;4930791;29;20654;-77
2022/04/18 16:48:43;;;;;;;2.57;1.90;;;;;;;;;;4930079;29;20577;-79
2022/04/18 16:51:10;;;;;;;1.80;1.57;;;;;;;;;;4936973;29;20454;-78
2022/04/18 16:53:38;;;;;;;3.40;1.47;;;;;;;;;;4934583;29;20441;-79
2022/04/18 16:56:06;;;;;;;2.83;2.13;;;;;;;;;;4919556;29;20449;-76
2022/04/18 16:58:33;;;;;;;1.73;1.53;;;;;;;;;;4931864;29;20461;-77
2022/04/18 17:01:00;;;;;;;2.28;1.90;;;;;;;;;;4933538;29;20460;-76
2022/04/18 17:03:27;;;;;;;1.70;1.60;;;;;;;;;;4937866;29;20195;-75
2022/04/18 17:05:54;;;;;;;1.83;1.60;;;;;;;;;;4936165;29;20475;-76
2022/04/18 17:08:22;;;;;;;1.90;1.70;;;;;;;;;;4932268;29;20441;-76
2022/04/18 17:10:50;;;;;;;2.33;2.10;;;;;;;;;;4930267;29;20471;-76
2022/04/18 17:13:17;;;;;;;2.20;2.00;;;;;;;;;;4934727;29;20433;-76
2022/04/18 17:15:45;;;;;;;2.40;2.07;;;;;;;;;;4932939;29;20956;-76
2022/04/18 17:18:12;;;;;;;1.83;1.50;;;;;;;;;;4922919;29;20453;-78
2022/04/18 17:20:39;;;;;;;4.87;2.10;;;;;;;;;;4913456;29;20450;-77
2022/04/18 17:23:06;;;;;;;2.93;1.90;;;;;;;;;;4926509;29;20835;-78
2022/04/18 17:25:34;;;;;;;2.13;1.70;;;;;;;;;;4928668;29;20805;-76
2022/04/18 17:28:02;;;;;;;2.90;1.70;;;;;;;;;;4927248;29;20434;-75
2022/04/18 17:30:30;;;;;;;3.00;2.00;;;;;;;;;;4930746;29;20549;-75
2022/04/18 17:32:57;;;;;;;3.27;2.10;;;;;;;;;;4932565;29;21078;-76
2022/04/18 17:35:24;;;;;;;3.47;2.03;;;;;;;;;;4930347;29;20469;-75
2022/04/18 17:37:52;;;;;;;2.10;1.80;;;;;;;;;;4933035;29;20446;-75
2022/04/18 17:42:45;;;;;;;2.60;2.00;;;;;;;;;;4930235;29;20441;-75
2022/04/18 17:45:14;;;;;;;2.20;1.70;;;;;;;;;;4926311;29;20199;-74
2022/04/18 17:47:41;;;;;;;2.50;2.00;;;;;;;;;;4928350;29;20958;-76
2022/04/18 17:50:09;;;;;;;3.03;2.17;;;;;;;;;;4932159;29;20474;-77
2022/04/18 17:52:38;;;;;;;2.30;1.77;;;;;;;;;;4931712;29;20454;-76
2022/04/18 17:57:47;;;;;;;2.47;2.00;;;;;;;;;;4927040;29;20413;-77
2022/04/18 18:00:16;;;;;;;2.33;1.93;;;;;;;;;;4932289;29;20573;-77
2022/04/18 18:02:44;;;;;;;2.23;2.03;;;;;;;;;;4936840;29;20472;-76
2022/04/18 18:05:11;;;;;;;3.27;2.37;;;;;;;;;;4929840;29;20473;-76
2022/04/18 18:07:38;;;;;;;3.90;2.10;;;;;;;;;;4927979;29;20534;-76
2022/04/18 18:10:05;;;;;;;2.70;2.37;;;;;;;;;;4932578;29;20478;-76
2022/04/18 18:12:32;;;;;;;2.67;1.90;;;;;;;;;;4931693;29;20462;-76
2022/04/18 18:15:02;;;;;;;2.50;1.97;;;;;;;;;;4930880;29;20526;-75
2022/04/18 18:17:32;;;;;;;4.90;2.47;;;;;;;;;;4931354;29;20466;-76
2022/04/18 18:19:59;;;;;;;4.03;2.30;;;;;;;;;;4915405;29;20565;-77
2022/04/18 18:22:26;;;;;;;2.13;1.93;;;;;;;;;;4932234;29;20470;-76
2022/04/18 18:24:53;;;;;;;3.50;2.50;;;;;;;;;;4924901;29;20489;-77
2022/04/18 18:27:20;;;;;;;2.47;2.27;;;;;;;;;;4928716;29;20553;-77
2022/04/18 18:29:48;;;;;;;3.43;2.30;;;;;;;;;;4927363;29;21104;-75
2022/04/18 18:32:15;;;;;;;2.87;2.13;;;;;;;;;;4927393;29;20999;-76
2022/04/18 18:34:43;;;;;;;2.27;2.03;;;;;;;;;;4931823;29;20451;-75
2022/04/18 18:37:10;;;;;;;3.03;2.47;;;;;;;;;;4930840;29;20469;-75
2022/04/18 18:39:38;;;;;;;3.20;2.50;;;;;;;;;;4929562;29;20796;-76
2022/04/18 18:42:05;;;;;;;3.17;2.47;;;;;;;;;;4931721;29;20974;-76
2022/04/18 18:44:32;;;;;;;3.33;2.60;;;;;;;;;;4931275;29;20469;-76
2022/04/18 18:47:00;;;;;;;4.37;2.87;;;;;;;;;;4931998;29;20465;-77
2022/04/18 18:49:27;;;;;;;3.70;2.50;;;;;;;;;;4929125;29;20459;-76
2022/04/18 18:54:36;;;;;;;3.30;2.40;;;;;;;;;;4924680;29;20813;-76
2022/04/18 18:57:04;;;;;;;3.10;2.20;;;;;;;;;;4927274;29;20457;-76
2022/04/18 18:59:31;;;;;;;5.30;3.10;;;;;;;;;;4913957;29;20488;-77
2022/04/18 19:01:59;;;;;;;2.90;2.53;;;;;;;;;;4923936;29;20547;-77
2022/04/18 19:04:26;;;;;;;3.30;2.80;;;;;;;;;;4929907;29;20467;-77
2022/04/18 19:06:56;;;;;;;4.23;2.90;;;;;;;;;;4931591;29;20827;-76
2022/04/18 19:09:25;;;;;;;3.57;2.63;;;;;;;;;;4932614;29;20928;-79
2022/04/18 19:11:52;;;;;;;3.10;2.50;;;;;;;;;;4937421;29;20478;-76
2022/04/18 19:14:20;;;;;;;2.90;2.53;;;;;;;;;;4925768;29;20472;-77
2022/04/18 19:27:35;;;;;;;4.10;3.30;;;;;;;;;;4929960;29;20518;-76
2022/04/18 19:30:06;;;;;;;4.63;3.60;;;;;;;;;;4931256;29;20485;-80
2022/04/18 19:32:41;;;;;;;4.43;3.63;;;;;;;;;;4934071;29;20565;-76
2022/04/18 19:35:09;;;;;;;5.70;4.27;;;;;;;;;;4930402;29;20808;-78
2022/04/18 19:37:37;;;;;;;4.20;3.60;;;;;;;;;;4925835;29;20551;-78
2022/04/18 19:40:07;;;;;;;6.80;3.60;;;;;;;;;;4924968;29;21246;-76
2022/04/18 19:42:34;;;;;;;3.97;3.60;;;;;;;;;;4931026;29;20541;-77
2022/04/18 19:45:01;;;;;;;4.30;3.40;;;;;;;;;;4932323;29;20959;-76
2022/04/18 19:47:31;;;;;;;3.33;3.00;;;;;;;;;;4929987;29;20459;-80
2022/04/18 19:49:58;;;;;;;5.00;3.57;;;;;;;;;;4931331;29;20452;-76
2022/04/18 19:52:25;;;;;;;3.90;2.97;;;;;;;;;;4930590;29;20498;-80
2022/04/18 19:54:54;;;;;;;4.43;3.60;;;;;;;;;;4934842;29;20467;-78
2022/04/18 19:57:23;;;;;;;3.60;3.27;;;;;;;;;;4931685;29;20805;-75
2022/04/18 19:59:51;;;;;;;6.30;3.83;;;;;;;;;;4925976;29;20519;-77
2022/04/18 20:02:18;;;;;;;5.87;3.67;;;;;;;;;;4925722;29;20488;-79
2022/04/18 20:04:45;;;;;;;3.90;3.43;;;;;;;;;;4929782;29;20537;-77
2022/04/18 20:07:12;;;;;;;8.47;7.57;;;;;;;;;;4927194;29;20465;-78
2022/04/18 20:09:40;;;;;;;4.43;3.70;;;;;;;;;;4933810;29;20465;-75
2022/04/18 20:12:07;;;;;;;4.93;3.20;;;;;;;;;;4931188;29;20483;-76
2022/04/18 20:14:36;;;;;;;4.00;3.17;;;;;;;;;;4932015;29;20542;-77
2022/04/18 20:17:03;;;;;;;4.13;3.10;;;;;;;;;;4934229;29;20439;-79
2022/04/18 20:19:31;;;;;;;5.27;3.40;;;;;;;;;;4935094;29;20542;-76
2022/04/18 20:21:58;;;;;;;3.20;2.73;;;;;;;;;;4929142;29;20648;-77
2022/04/18 20:24:26;;;;;;;4.27;2.70;;;;;;;;;;4927886;29;20479;-80
2022/04/18 20:26:53;;;;;;;4.10;2.97;;;;;;;;;;4933361;29;20524;-76
2022/04/18 20:29:23;;;;;;;4.43;3.00;;;;;;;;;;4933826;29;20510;-77
2022/04/18 20:31:52;;;;;;;5.53;3.03;;;;;;;;;;4930683;29;20577;-76
2022/04/18 20:34:19;;;;;;;5.53;3.23;;;;;;;;;;4932983;29;20460;-77
2022/04/18 20:36:46;;;;;;;6.73;2.73;;;;;;;;;;4935928;29;20456;-76
2022/04/18 20:39:13;;;;;;;4.30;2.70;;;;;;;;;;4933950;29;20467;-77
2022/04/18 20:41:41;;;;;;;3.53;2.60;;;;;;;;;;4935311;29;20460;-77
2022/04/18 20:44:08;;;;;;;4.27;2.53;;;;;;;;;;4929713;29;20442;-74
2022/04/18 20:46:35;;;;;;;7.00;2.70;;;;;;;;;;4928675;29;20829;-78
2022/04/18 20:49:04;;;;;;;4.27;2.80;;;;;;;;;;4914082;29;20460;-76
2022/04/18 20:51:31;;;;;;;2.93;2.63;;;;;;;;;;4929020;29;20887;-77
2022/04/18 20:59:21;;;;;;;3.30;3.00;;;;;;;;;;4931785;29;20944;-75
2022/04/18 21:01:48;;;;;;;4.80;2.77;;;;;;;;;;4935456;29;20482;-77
2022/04/18 21:04:16;;;;;;;4.10;3.70;;;;;;;;;;4934187;29;20840;-78
2022/04/18 21:06:44;;;;;;;4.67;2.63;;;;;;;;;;4927489;29;20456;-76
2022/04/18 21:09:12;;;;;;;3.80;2.97;;;;;;;;;;4927713;29;20463;-77
2022/04/18 21:11:39;;;;;;;4.07;2.83;;;;;;;;;;4932547;29;20470;-75
2022/04/18 21:14:07;;;;;;;3.50;2.70;;;;;;;;;;4930221;29;20469;-75
2022/04/18 21:16:35;;;;;;;4.00;2.97;;;;;;;;;;4932031;29;20513;-77
2022/04/18 21:19:02;;;;;;;4.23;2.40;;;;;;;;;;4933345;29;20803;-77
2022/04/18 21:21:31;;;;;;;2.90;2.23;;;;;;;;;;4931550;29;20502;-76
2022/04/18 21:23:58;;;;;;;2.80;2.57;;;;;;;;;;4934891;29;20915;-77
2022/04/18 21:26:30;;;;;;;3.20;2.47;;;;;;;;;;4933550;29;20477;-76
2022/04/18 21:28:58;;;;;;;2.63;2.17;;;;;;;;;;4928962;29;20445;-77
2022/04/18 21:31:25;;;;;;;4.33;2.70;;;;;;;;;;4927402;29;20482;-76
2022/04/18 21:33:52;;;;;;;3.90;2.83;;;;;;;;;;4931041;29;21304;-75
2022/04/18 21:39:03;;;;;;;4.80;2.20;;;;;;;;;;4920656;29;20442;-76
2022/04/18 21:41:31;;;;;;;3.17;2.63;;;;;;;;;;4936645;29;20580;-77
2022/04/18 21:43:58;;;;;;;4.00;3.17;;;;;;;;;;4936358;29;20459;-77
2022/04/18 21:46:25;;;;;;;3.90;3.10;;;;;;;;;;4938184;29;20447;-76
2022/04/18 21:48:52;;;;;;;3.00;2.70;;;;;;;;;;4938028;29;20453;-77
2022/04/18 21:51:20;;;;;;;2.67;2.47;;;;;;;;;;4933079;29;20486;-76
2022/04/18 21:53:47;;;;;;;8.57;3.40;;;;;;;;;;4931818;29;20442;-76
2022/04/18 21:56:15;;;;;;;2.43;2.20;;;;;;;;;;4935013;29;20449;-76
2022/04/18 21:58:42;;;;;;;4.37;3.10;;;;;;;;;;4935746;29;20438;-75
2022/04/18 22:01:10;;;;;;;3.73;2.67;;;;;;;;;;4935939;29;20494;-75
2022/04/18 22:03:38;;;;;;;3.13;2.70;;;;;;;;;;4936947;29;20474;-76
2022/04/18 22:06:05;;;;;;;2.43;2.23;;;;;;;;;;4936176;29;20447;-75
2022/04/18 22:08:32;;;;;;;2.57;2.37;;;;;;;;;;4933076;29;20439;-76
2022/04/18 22:10:59;;;;;;;2.93;2.60;;;;;;;;;;4931714;29;20459;-75
2022/04/18 22:13:29;;;;;;;3.07;2.77;;;;;;;;;;4934663;29;20453;-75
2022/04/18 22:15:56;;;;;;;4.73;3.30;;;;;;;;;;4935355;29;20453;-76
2022/04/18 22:18:24;;;;;;;4.70;3.07;;;;;;;;;;4935401;29;20446;-76
2022/04/18 22:26:15;;;;;;;3.50;2.83;;;;;;;;;;4936671;29;20852;-76
2022/04/18 22:28:43;;;;;;;3.90;2.90;;;;;;;;;;4937648;29;20786;-75
2022/04/18 22:31:10;;;;;;;5.20;3.10;;;;;;;;;;4931369;29;20453;-75
2022/04/18 22:33:38;;;;;;;3.30;2.90;;;;;;;;;;4931245;29;20803;-76
2022/04/18 22:36:05;;;;;;;3.83;3.00;;;;;;;;;;4915648;29;20454;-76
2022/04/18 22:38:32;;;;;;;6.03;2.63;;;;;;;;;;4915942;29;20866;-75
2022/04/18 22:41:00;;;;;;;3.80;2.80;;;;;;;;;;4915938;29;20511;-76
2022/04/18 22:43:28;;;;;;;4.10;3.27;;;;;;;;;;4916449;29;20550;-75
2022/04/18 22:45:56;;;;;;;3.40;2.90;;;;;;;;;;4920372;29;20863;-75
2022/04/18 22:48:25;;;;;;;3.40;2.83;;;;;;;;;;4936991;29;20442;-76
2022/04/18 22:50:53;;;;;;;3.63;3.00;;;;;;;;;;4936974;29;20477;-78
2022/04/18 22:53:20;;;;;;;4.37;3.30;;;;;;;;;;4931355;29;20486;-75
2022/04/18 22:55:47;;;;;;;3.90;3.20;;;;;;;;;;4930847;29;20435;-76
2022/04/18 22:58:14;;;;;;;3.87;3.10;;;;;;;;;;4934060;29;20451;-77
2022/04/18 23:00:42;;;;;;;3.60;3.20;;;;;;;;;;4934176;29;20490;-76
2022/04/18 23:03:10;;;;;;;4.60;2.97;;;;;;;;;;4934791;29;20442;-76
2022/04/18 23:08:19;;;;;;;3.97;3.47;;;;;;;;;;4933635;29;20466;-76
2022/04/18 23:10:46;;;;;;;5.27;3.60;;;;;;;;;;4936873;29;20968;-77
2022/04/18 23:13:13;;;;;;;4.10;3.27;;;;;;;;;;4936459;29;20458;-75
2022/04/18 23:15:41;;;;;;;8.00;3.70;;;;;;;;;;4930730;29;20443;-75
2022/04/18 23:18:08;;;;;;;3.53;3.10;;;;;;;;;;4930652;29;20470;-77
2022/04/18 23:20:37;;;;;;;3.40;2.97;;;;;;;;;;4933728;29;20517;-77
2022/04/18 23:23:05;;;;;;;4.20;3.13;;;;;;;;;;4933936;29;20454;-75
2022/04/18 23:25:32;;;;;;;3.40;2.60;;;;;;;;;;4935041;29;20514;-76
2022/04/18 23:28:00;;;;;;;2.90;2.60;;;;;;;;;;4934566;29;20431;-77
2022/04/18 23:30:30;;;;;;;2.73;2.53;;;;;;;;;;4934497;29;20546;-76
2022/04/18 23:32:57;;;;;;;3.00;2.47;;;;;;;;;;4935436;29;20450;-77
2022/04/18 23:35:26;;;;;;;3.70;3.40;;;;;;;;;;4936364;29;20450;-77
2022/04/18 23:37:54;;;;;;;4.27;3.33;;;;;;;;;;4929161;29;20439;-77
2022/04/18 23:43:02;;;;;;;4.00;3.30;;;;;;;;;;4932474;29;20453;-78
2022/04/18 23:45:30;;;;;;;2.97;2.70;;;;;;;;;;4934002;29;20462;-77
2022/04/18 23:47:58;;;;;;;4.40;2.90;;;;;;;;;;4933594;29;20828;-78
2022/04/18 23:53:10;;;;;;;4.90;3.30;;;;;;;;;;4932717;29;20460;-77
2022/04/18 23:55:37;;;;;;;4.27;3.13;;;;;;;;;;4931328;29;20457;-78
2022/04/18 23:58:04;;;;;;;3.40;3.10;;;;;;;;;;4929957;29;20431;-76
